Portada
METAR-TAF:

METAR-TAF

Aeroports :

Yangyang, Corea del Sud

latitud: 38-03-41N, longitud: 128-40-09E, altitud: 73 m

Observació

L'informe es va fer fa 37 minuts, a les 18:00 UTC
Vent 9 kt del Est
Temperatura 10°C
Humitat 62%
Pressió 1018 hPa
Visibilitat 10 km o més

METAR: RKNY 181800Z AUTO 09009KT 9999 ///051/// ///059/// 10/03 Q1018

Hora: 03:37 (18:37 UTC)

Pronòstic

L'informe es va fer fa 1 hora i 37 minuts, a les 17:00 UTC
Pronòstic vàlid del 18 a les 18 UTC al 19 a les 24 UTC
Vent 12 kt del Est
Visibilitat 10 km o més
sense núvols per sota de 1500 mi sense presència de cumulonimbus.
Evolucionant progressivament
l' 19 a les 11 UTC al 19 a les 12 UTC
Vent 7 kt del Sud
Evolucionant progressivament
l' 19 a les 17 UTC al 19 a les 18 UTC
Vent 8 kt del Oest/Sud-Oest
Evolucionant progressivament
l' 19 a les 23 UTC al 19 a les 24 UTC
Vent 7 kt del Est

TAF: RKNY 181700Z 1818/1924 10012KT CAVOK TN08/1820Z TX13/1905Z TN09/1920Z BECMG 1911/1912 18007KT BECMG 1917/1918 25008KT BECMG 1923/1924 10007KT

Observacions i pronòstics meteorològics de més de 4000 aeroports (METAR i TAF).

Les estacions disponibles són els punts grocs i vermells al mapa.

Posi el ratolí al punt desitjat per veure el nom de l'estació.

Feu clic per veure les observacions i els pronòstics meteorològics.

Per canviar el mapa: feu clic els botons verds amb una creu de color negre per apropar; al botó verd amb un guió per allunyar la imatge; o en les fletxes verdes per a mapes adjacents.


METAR-TAF: